sensor_id;sensor_type;location;lat;lon;timestamp;pressure;altitude;pressure_sealevel;temperature;humidity
9419;BME280;4748;50.802;7.132;2022-11-11T04:32:45;102405.25;;;7.26;100.00
9419;BME280;4748;50.802;7.132;2022-11-11T04:35:12;102398.94;;;7.27;100.00
9419;BME280;4748;50.802;7.132;2022-11-11T04:37:46;102405.94;;;7.28;100.00
9419;BME280;4748;50.802;7.132;2022-11-11T04:40:13;102403.06;;;7.21;100.00
9419;BME280;4748;50.802;7.132;2022-11-11T04:42:57;102403.25;;;7.28;100.00
9419;BME280;4748;50.802;7.132;2022-11-11T04:45:22;102406.41;;;7.23;100.00
9419;BME280;4748;50.802;7.132;2022-11-11T04:48:03;102410.75;;;7.24;100.00
9419;BME280;4748;50.802;7.132;2022-11-11T04:50:34;102404.06;;;7.20;100.00
9419;BME280;4748;50.802;7.132;2022-11-11T04:53:01;102405.72;;;7.21;100.00
9419;BME280;4748;50.802;7.132;2022-11-11T04:55:27;102416.69;;;7.18;100.00
9419;BME280;4748;50.802;7.132;2022-11-11T04:58:12;102416.84;;;7.17;100.00
9419;BME280;4748;50.802;7.132;2022-11-11T05:00:38;102418.50;;;7.18;100.00
9419;BME280;4748;50.802;7.132;2022-11-11T05:03:04;102427.03;;;7.21;100.00
9419;BME280;4748;50.802;7.132;2022-11-11T05:05:48;102416.16;;;7.15;100.00
9419;BME280;4748;50.802;7.132;2022-11-11T05:08:34;102414.72;;;7.03;100.00
9419;BME280;4748;50.802;7.132;2022-11-11T05:11:18;102413.13;;;7.10;100.00
9419;BME280;4748;50.802;7.132;2022-11-11T05:13:44;102432.13;;;7.15;100.00
9419;BME280;4748;50.802;7.132;2022-11-11T05:16:43;102431.06;;;7.08;100.00
9419;BME280;4748;50.802;7.132;2022-11-11T05:19:27;102426.44;;;7.10;100.00
9419;BME280;4748;50.802;7.132;2022-11-11T05:22:29;102427.28;;;7.10;100.00
9419;BME280;4748;50.802;7.132;2022-11-11T05:24:55;102425.59;;;7.09;100.00
9419;BME280;4748;50.802;7.132;2022-11-11T05:27:40;102429.09;;;7.10;100.00
9419;BME280;4748;50.802;7.132;2022-11-11T05:30:07;102434.63;;;7.16;100.00
9419;BME280;4748;50.802;7.132;2022-11-11T05:32:33;102420.25;;;7.09;100.00
9419;BME280;4748;50.802;7.132;2022-11-11T05:34:58;102411.59;;;7.08;100.00
9419;BME280;4748;50.802;7.132;2022-11-11T05:37:24;102414.41;;;7.06;100.00
9419;BME280;4748;50.802;7.132;2022-11-11T05:39:49;102429.09;;;7.10;100.00
9419;BME280;4748;50.802;7.132;2022-11-11T05:42:15;102419.44;;;7.09;100.00
9419;BME280;4748;50.802;7.132;2022-11-11T05:44:40;102420.97;;;7.11;100.00
9419;BME280;4748;50.802;7.132;2022-11-11T05:47:06;102420.41;;;7.08;100.00
9419;BME280;4748;50.802;7.132;2022-11-11T05:49:31;102417.47;;;7.11;100.00
9419;BME280;4748;50.802;7.132;2022-11-11T05:51:57;102428.78;;;7.13;100.00
9419;BME280;4748;50.802;7.132;2022-11-11T05:54:22;102434.13;;;7.13;100.00
9419;BME280;4748;50.802;7.132;2022-11-11T05:56:48;102431.94;;;7.09;100.00
9419;BME280;4748;50.802;7.132;2022-11-11T05:59:14;102443.94;;;7.12;100.00
9419;BME280;4748;50.802;7.132;2022-11-11T06:01:39;102438.06;;;7.09;100.00
9419;BME280;4748;50.802;7.132;2022-11-11T06:04:05;102438.91;;;7.09;100.00
9419;BME280;4748;50.802;7.132;2022-11-11T06:06:32;102441.28;;;7.12;100.00
9419;BME280;4748;50.802;7.132;2022-11-11T06:08:58;102440.75;;;7.09;100.00
9419;BME280;4748;50.802;7.132;2022-11-11T06:11:23;102441.44;;;7.11;100.00
9419;BME280;4748;50.802;7.132;2022-11-11T06:13:49;102444.38;;;7.08;100.00
9419;BME280;4748;50.802;7.132;2022-11-11T06:16:15;102455.44;;;7.13;100.00
9419;BME280;4748;50.802;7.132;2022-11-11T06:18:40;102455.03;;;7.08;100.00
9419;BME280;4748;50.802;7.132;2022-11-11T06:21:06;102451.06;;;7.12;100.00
9419;BME280;4748;50.802;7.132;2022-11-11T06:23:31;102462.75;;;7.11;100.00
9419;BME280;4748;50.802;7.132;2022-11-11T06:25:57;102462.75;;;7.11;100.00
9419;BME280;4748;50.802;7.132;2022-11-11T06:28:48;102466.75;;;7.15;100.00
9419;BME280;4748;50.802;7.132;2022-11-11T06:31:32;102471.16;;;7.07;100.00
9419;BME280;4748;50.802;7.132;2022-11-11T06:33:58;102485.47;;;7.06;100.00
9419;BME280;4748;50.802;7.132;2022-11-11T06:36:23;102482.97;;;7.04;100.00
9419;BME280;4748;50.802;7.132;2022-11-11T06:38:48;102486.00;;;7.09;100.00
9419;BME280;4748;50.802;7.132;2022-11-11T06:41:14;102493.69;;;7.12;100.00
9419;BME280;4748;50.802;7.132;2022-11-11T06:43:41;102489.38;;;7.11;100.00
9419;BME280;4748;50.802;7.132;2022-11-11T06:46:15;102484.03;;;7.11;100.00
9419;BME280;4748;50.802;7.132;2022-11-11T06:48:41;102501.81;;;7.10;100.00
9419;BME280;4748;50.802;7.132;2022-11-11T06:51:08;102510.50;;;7.12;100.00
9419;BME280;4748;50.802;7.132;2022-11-11T06:53:35;102500.69;;;7.13;100.00
9419;BME280;4748;50.802;7.132;2022-11-11T06:56:00;102511.19;;;7.14;100.00
9419;BME280;4748;50.802;7.132;2022-11-11T06:58:26;102499.41;;;7.17;100.00
9419;BME280;4748;50.802;7.132;2022-11-11T07:00:51;102499.75;;;7.22;100.00
9419;BME280;4748;50.802;7.132;2022-11-11T07:03:19;102508.63;;;7.22;100.00
9419;BME280;4748;50.802;7.132;2022-11-11T07:05:45;102509.13;;;7.26;100.00
9419;BME280;4748;50.802;7.132;2022-11-11T07:08:14;102510.34;;;7.31;100.00
9419;BME280;4748;50.802;7.132;2022-11-11T07:10:43;102499.22;;;7.36;100.00
9419;BME280;4748;50.802;7.132;2022-11-11T07:13:09;102495.59;;;7.37;100.00
9419;BME280;4748;50.802;7.132;2022-11-11T07:15:35;102496.97;;;7.41;100.00
9419;BME280;4748;50.802;7.132;2022-11-11T07:18:00;102494.28;;;7.41;100.00
9419;BME280;4748;50.802;7.132;2022-11-11T07:20:26;102499.97;;;7.46;100.00
9419;BME280;4748;50.802;7.132;2022-11-11T07:22:51;102503.31;;;7.48;100.00
9419;BME280;4748;50.802;7.132;2022-11-11T07:25:17;102503.53;;;7.54;100.00
9419;BME280;4748;50.802;7.132;2022-11-11T07:27:42;102510.56;;;7.55;100.00
9419;BME280;4748;50.802;7.132;2022-11-11T07:30:09;102499.34;;;7.52;100.00
9419;BME280;4748;50.802;7.132;2022-11-11T07:32:35;102501.94;;;7.61;100.00
9419;BME280;4748;50.802;7.132;2022-11-11T07:35:01;102500.31;;;7.68;100.00
9419;BME280;4748;50.802;7.132;2022-11-11T07:37:27;102503.19;;;7.74;100.00
9419;BME280;4748;50.802;7.132;2022-11-11T07:39:52;102501.22;;;7.76;100.00
9419;BME280;4748;50.802;7.132;2022-11-11T07:42:19;102510.13;;;7.85;100.00
9419;BME280;4748;50.802;7.132;2022-11-11T07:44:44;102512.47;;;7.88;100.00
9419;BME280;4748;50.802;7.132;2022-11-11T07:47:09;102517.97;;;7.94;100.00
9419;BME280;4748;50.802;7.132;2022-11-11T07:49:35;102517.22;;;8.02;100.00
9419;BME280;4748;50.802;7.132;2022-11-11T07:52:00;102520.09;;;8.08;100.00
9419;BME280;4748;50.802;7.132;2022-11-11T07:54:25;102523.16;;;8.13;100.00
9419;BME280;4748;50.802;7.132;2022-11-11T07:56:51;102519.00;;;8.18;100.00
9419;BME280;4748;50.802;7.132;2022-11-11T07:59:16;102529.41;;;8.29;100.00
9419;BME280;4748;50.802;7.132;2022-11-11T08:01:42;102533.28;;;8.35;100.00
9419;BME280;4748;50.802;7.132;2022-11-11T08:04:07;102533.44;;;8.41;100.00
9419;BME280;4748;50.802;7.132;2022-11-11T08:06:33;102536.66;;;8.45;100.00
9419;BME280;4748;50.802;7.132;2022-11-11T08:08:58;102543.19;;;8.50;100.00
9419;BME280;4748;50.802;7.132;2022-11-11T08:11:23;102547.22;;;8.54;100.00
9419;BME280;4748;50.802;7.132;2022-11-11T08:14:07;102551.09;;;8.67;100.00
9419;BME280;4748;50.802;7.132;2022-11-11T08:16:33;102553.81;;;8.75;100.00
9419;BME280;4748;50.802;7.132;2022-11-11T08:18:58;102551.47;;;8.80;100.00
9419;BME280;4748;50.802;7.132;2022-11-11T08:21:24;102555.81;;;8.81;100.00
9419;BME280;4748;50.802;7.132;2022-11-11T08:23:50;102555.22;;;8.95;100.00
9419;BME280;4748;50.802;7.132;2022-11-11T08:26:16;102547.88;;;8.97;100.00
9419;BME280;4748;50.802;7.132;2022-11-11T08:28:43;102556.22;;;9.02;100.00
9419;BME280;4748;50.802;7.132;2022-11-11T08:31:09;102555.41;;;9.10;100.00
9419;BME280;4748;50.802;7.132;2022-11-11T08:33:35;102554.25;;;9.20;100.00
9419;BME280;4748;50.802;7.132;2022-11-11T08:36:01;102556.97;;;9.28;100.00
9419;BME280;4748;50.802;7.132;2022-11-11T08:38:26;102558.44;;;9.30;100.00
9419;BME280;4748;50.802;7.132;2022-11-11T08:40:52;102550.63;;;9.37;100.00
9419;BME280;4748;50.802;7.132;2022-11-11T08:43:18;102545.94;;;9.47;100.00
9419;BME280;4748;50.802;7.132;2022-11-11T08:45:44;102543.59;;;9.52;100.00
9419;BME280;4748;50.802;7.132;2022-11-11T08:48:10;102553.16;;;9.62;100.00
9419;BME280;4748;50.802;7.132;2022-11-11T08:50:36;102554.31;;;9.67;100.00
9419;BME280;4748;50.802;7.132;2022-11-11T08:53:03;102558.31;;;9.79;100.00
9419;BME280;4748;50.802;7.132;2022-11-11T08:55:28;102566.19;;;9.89;100.00
9419;BME280;4748;50.802;7.132;2022-11-11T08:58:01;102566.34;;;9.95;100.00
9419;BME280;4748;50.802;7.132;2022-11-11T09:00:28;102566.00;;;10.06;100.00
9419;BME280;4748;50.802;7.132;2022-11-11T09:02:54;102560.66;;;10.06;100.00
9419;BME280;4748;50.802;7.132;2022-11-11T09:05:19;102560.50;;;10.16;100.00
9419;BME280;4748;50.802;7.132;2022-11-11T09:07:45;102561.31;;;10.16;100.00
9419;BME280;4748;50.802;7.132;2022-11-11T09:10:10;102568.50;;;10.23;100.00
9419;BME280;4748;50.802;7.132;2022-11-11T09:12:36;102580.19;;;10.30;100.00
9419;BME280;4748;50.802;7.132;2022-11-11T09:15:01;102571.84;;;10.25;100.00
9419;BME280;4748;50.802;7.132;2022-11-11T09:17:27;102574.66;;;10.24;100.00
9419;BME280;4748;50.802;7.132;2022-11-11T09:19:52;102578.97;;;10.41;100.00
9419;BME280;4748;50.802;7.132;2022-11-11T09:22:17;102580.34;;;10.37;100.00
9419;BME280;4748;50.802;7.132;2022-11-11T09:24:43;102583.69;;;10.47;100.00
9419;BME280;4748;50.802;7.132;2022-11-11T09:27:09;102587.16;;;10.55;100.00
9419;BME280;4748;50.802;7.132;2022-11-11T09:29:35;102585.13;;;10.65;100.00
9419;BME280;4748;50.802;7.132;2022-11-11T09:32:00;102579.25;;;10.69;100.00
9419;BME280;4748;50.802;7.132;2022-11-11T09:34:26;102587.72;;;10.81;100.00
9419;BME280;4748;50.802;7.132;2022-11-11T09:36:51;102591.38;;;10.88;100.00
9419;BME280;4748;50.802;7.132;2022-11-11T09:39:17;102590.16;;;10.98;100.00
9419;BME280;4748;50.802;7.132;2022-11-11T09:50:03;102603.88;;;11.33;100.00
9419;BME280;4748;50.802;7.132;2022-11-11T09:52:38;102597.44;;;11.42;100.00
9419;BME280;4748;50.802;7.132;2022-11-11T09:55:17;102595.94;;;11.48;100.00
9419;BME280;4748;50.802;7.132;2022-11-11T09:57:47;102591.63;;;11.61;100.00
9419;BME280;4748;50.802;7.132;2022-11-11T10:00:17;102598.03;;;11.60;100.00
9419;BME280;4748;50.802;7.132;2022-11-11T10:02:52;102588.94;;;11.61;100.00
9419;BME280;4748;50.802;7.132;2022-11-11T10:05:32;102589.25;;;11.66;100.00
9419;BME280;4748;50.802;7.132;2022-11-11T10:08:25;102585.69;;;11.73;100.00
9419;BME280;4748;50.802;7.132;2022-11-11T10:10:53;102588.31;;;11.81;100.00
9419;BME280;4748;50.802;7.132;2022-11-11T10:13:28;102578.97;;;11.92;100.00
9419;BME280;4748;50.802;7.132;2022-11-11T10:15:59;102582.06;;;12.03;100.00
9419;BME280;4748;50.802;7.132;2022-11-11T10:21:00;102575.34;;;12.22;100.00
9419;BME280;4748;50.802;7.132;2022-11-11T10:23:31;102571.91;;;12.13;100.00
9419;BME280;4748;50.802;7.132;2022-11-11T10:28:51;102586.41;;;12.41;100.00
9419;BME280;4748;50.802;7.132;2022-11-11T10:31:20;102574.97;;;12.39;100.00
9419;BME280;4748;50.802;7.132;2022-11-11T10:34:25;102592.84;;;12.46;100.00
9419;BME280;4748;50.802;7.132;2022-11-11T10:36:49;102586.22;;;12.57;100.00
9419;BME280;4748;50.802;7.132;2022-11-11T10:39:23;102581.56;;;12.79;100.00
9419;BME280;4748;50.802;7.132;2022-11-11T10:41:51;102584.06;;;12.95;100.00
9419;BME280;4748;50.802;7.132;2022-11-11T10:44:27;102579.53;;;13.10;100.00
9419;BME280;4748;50.802;7.132;2022-11-11T10:46:59;102582.75;;;13.20;100.00
9419;BME280;4748;50.802;7.132;2022-11-11T10:49:31;102589.28;;;13.32;100.00
9419;BME280;4748;50.802;7.132;2022-11-11T10:52:15;102583.53;;;13.35;100.00
9419;BME280;4748;50.802;7.132;2022-11-11T10:54:50;102592.41;;;13.50;100.00
9419;BME280;4748;50.802;7.132;2022-11-11T10:57:28;102591.50;;;13.43;100.00
9419;BME280;4748;50.802;7.132;2022-11-11T11:00:08;102586.75;;;13.45;100.00
9419;BME280;4748;50.802;7.132;2022-11-11T11:02:47;102575.97;;;13.45;100.00
9419;BME280;4748;50.802;7.132;2022-11-11T11:05:21;102580.41;;;13.52;100.00
9419;BME280;4748;50.802;7.132;2022-11-11T11:07:53;102584.94;;;13.52;100.00
9419;BME280;4748;50.802;7.132;2022-11-11T11:10:23;102580.19;;;13.54;100.00
9419;BME280;4748;50.802;7.132;2022-11-11T11:15:26;102576.63;;;13.88;100.00
9419;BME280;4748;50.802;7.132;2022-11-11T11:20:29;102558.16;;;13.85;100.00
9419;BME280;4748;50.802;7.132;2022-11-11T11:22:56;102565.06;;;13.74;100.00
9419;BME280;4748;50.802;7.132;2022-11-11T11:25:25;102560.69;;;13.93;100.00
9419;BME280;4748;50.802;7.132;2022-11-11T11:27:52;102560.56;;;14.01;100.00
9419;BME280;4748;50.802;7.132;2022-11-11T11:30:28;102554.03;;;14.10;100.00
9419;BME280;4748;50.802;7.132;2022-11-11T11:32:58;102563.00;;;14.17;100.00
9419;BME280;4748;50.802;7.132;2022-11-11T11:35:31;102555.47;;;14.33;100.00
9419;BME280;4748;50.802;7.132;2022-11-11T11:37:57;102561.03;;;14.32;100.00
9419;BME280;4748;50.802;7.132;2022-11-11T11:40:23;102552.47;;;14.22;100.00
9419;BME280;4748;50.802;7.132;2022-11-11T11:42:48;102561.19;;;14.24;100.00
9419;BME280;4748;50.802;7.132;2022-11-11T11:45:25;102560.41;;;14.30;100.00
9419;BME280;4748;50.802;7.132;2022-11-11T11:50:51;102558.16;;;14.33;100.00
9419;BME280;4748;50.802;7.132;2022-11-11T11:56:06;102559.25;;;14.45;100.00
9419;BME280;4748;50.802;7.132;2022-11-11T12:04:21;102543.09;;;14.45;100.00
9419;BME280;4748;50.802;7.132;2022-11-11T12:10:01;102549.00;;;14.68;100.00
9419;BME280;4748;50.802;7.132;2022-11-11T12:12:52;102543.66;;;14.75;100.00
9419;BME280;4748;50.802;7.132;2022-11-11T12:20:47;102537.91;;;14.90;100.00
9419;BME280;4748;50.802;7.132;2022-11-11T12:26:12;102539.03;;;15.09;100.00
9419;BME280;4748;50.802;7.132;2022-11-11T12:28:58;102527.63;;;15.13;100.00
9419;BME280;4748;50.802;7.132;2022-11-11T12:31:39;102526.34;;;15.09;100.00
9419;BME280;4748;50.802;7.132;2022-11-11T12:34:38;102521.22;;;15.21;100.00
9419;BME280;4748;50.802;7.132;2022-11-11T12:45:53;102513.19;;;15.40;100.00
9419;BME280;4748;50.802;7.132;2022-11-11T12:55:17;102511.53;;;15.45;100.00
9419;BME280;4748;50.802;7.132;2022-11-11T12:58:10;102517.72;;;15.39;100.00
9419;BME280;4748;50.802;7.132;2022-11-11T13:00:53;102513.81;;;15.42;100.00
9419;BME280;4748;50.802;7.132;2022-11-11T13:03:34;102506.13;;;15.39;100.00
9419;BME280;4748;50.802;7.132;2022-11-11T13:06:24;102511.09;;;15.35;100.00
9419;BME280;4748;50.802;7.132;2022-11-11T13:14:20;102507.13;;;15.38;100.00
9419;BME280;4748;50.802;7.132;2022-11-11T13:16:53;102511.94;;;15.36;100.00
9419;BME280;4748;50.802;7.132;2022-11-11T13:24:42;102512.53;;;15.25;100.00
9419;BME280;4748;50.802;7.132;2022-11-11T13:27:43;102512.53;;;15.32;100.00
9419;BME280;4748;50.802;7.132;2022-11-11T13:33:04;102498.81;;;15.27;100.00
9419;BME280;4748;50.802;7.132;2022-11-11T13:35:45;102496.78;;;15.29;100.00
9419;BME280;4748;50.802;7.132;2022-11-11T13:38:34;102490.34;;;15.36;100.00
9419;BME280;4748;50.802;7.132;2022-11-11T13:41:07;102493.84;;;15.36;100.00
9419;BME280;4748;50.802;7.132;2022-11-11T13:43:42;102501.53;;;15.39;100.00
9419;BME280;4748;50.802;7.132;2022-11-11T13:48:56;102492.22;;;15.55;100.00
9419;BME280;4748;50.802;7.132;2022-11-11T13:51:33;102494.09;;;15.54;100.00
9419;BME280;4748;50.802;7.132;2022-11-11T13:54:01;102493.88;;;15.56;100.00
9419;BME280;4748;50.802;7.132;2022-11-11T13:56:42;102495.53;;;15.63;100.00
9419;BME280;4748;50.802;7.132;2022-11-11T13:59:28;102487.66;;;15.75;100.00
9419;BME280;4748;50.802;7.132;2022-11-11T14:15:47;102486.63;;;15.63;100.00
9419;BME280;4748;50.802;7.132;2022-11-11T14:20:43;102489.50;;;15.42;100.00
9419;BME280;4748;50.802;7.132;2022-11-11T14:28:43;102488.78;;;15.08;100.00
9419;BME280;4748;50.802;7.132;2022-11-11T14:33:51;102493.13;;;15.02;100.00
9419;BME280;4748;50.802;7.132;2022-11-11T14:36:44;102482.75;;;14.93;100.00
9419;BME280;4748;50.802;7.132;2022-11-11T14:41:37;102483.97;;;14.90;100.00
9419;BME280;4748;50.802;7.132;2022-11-11T14:49:45;102496.78;;;14.76;100.00
9419;BME280;4748;50.802;7.132;2022-11-11T14:52:22;102496.97;;;14.68;100.00
9419;BME280;4748;50.802;7.132;2022-11-11T14:57:49;102494.22;;;14.55;100.00
9419;BME280;4748;50.802;7.132;2022-11-11T15:00:20;102496.44;;;14.45;100.00
9419;BME280;4748;50.802;7.132;2022-11-11T15:03:09;102495.38;;;14.39;100.00
9419;BME280;4748;50.802;7.132;2022-11-11T15:05:53;102496.94;;;14.27;100.00
9419;BME280;4748;50.802;7.132;2022-11-11T15:08:48;102502.13;;;14.29;100.00
9419;BME280;4748;50.802;7.132;2022-11-11T15:11:55;102490.88;;;14.19;100.00
9419;BME280;4748;50.802;7.132;2022-11-11T15:17:23;102489.31;;;14.04;100.00
9419;BME280;4748;50.802;7.132;2022-11-11T15:30:21;102472.81;;;13.59;100.00
9419;BME280;4748;50.802;7.132;2022-11-11T15:37:55;102479.88;;;13.39;100.00
9419;BME280;4748;50.802;7.132;2022-11-11T15:40:26;102481.88;;;13.30;100.00
9419;BME280;4748;50.802;7.132;2022-11-11T15:42:55;102486.16;;;13.25;100.00
9419;BME280;4748;50.802;7.132;2022-11-11T15:45:23;102484.88;;;13.21;100.00
9419;BME280;4748;50.802;7.132;2022-11-11T15:47:50;102481.09;;;13.16;100.00
9419;BME280;4748;50.802;7.132;2022-11-11T15:50:30;102487.19;;;13.03;100.00
9419;BME280;4748;50.802;7.132;2022-11-11T15:52:59;102484.88;;;13.00;100.00
9419;BME280;4748;50.802;7.132;2022-11-11T15:57:52;102498.53;;;12.84;100.00
9419;BME280;4748;50.802;7.132;2022-11-11T16:00:29;102495.56;;;12.79;100.00
9419;BME280;4748;50.802;7.132;2022-11-11T16:02:56;102498.34;;;12.72;100.00
9419;BME280;4748;50.802;7.132;2022-11-11T16:05:26;102491.03;;;12.66;100.00
9419;BME280;4748;50.802;7.132;2022-11-11T16:07:54;102498.84;;;12.61;100.00
9419;BME280;4748;50.802;7.132;2022-11-11T16:10:33;102499.56;;;12.55;100.00
9419;BME280;4748;50.802;7.132;2022-11-11T16:13:15;102499.94;;;12.52;100.00
9419;BME280;4748;50.802;7.132;2022-11-11T16:15:46;102500.88;;;12.44;100.00
9419;BME280;4748;50.802;7.132;2022-11-11T16:18:21;102503.31;;;12.39;100.00
9419;BME280;4748;50.802;7.132;2022-11-11T16:20:52;102497.00;;;12.32;100.00
9419;BME280;4748;50.802;7.132;2022-11-11T16:23:20;102504.34;;;12.24;100.00
9419;BME280;4748;50.802;7.132;2022-11-11T16:25:46;102496.84;;;12.20;100.00
9419;BME280;4748;50.802;7.132;2022-11-11T16:28:13;102500.78;;;12.09;100.00
9419;BME280;4748;50.802;7.132;2022-11-11T16:30:39;102508.56;;;12.04;100.00
9419;BME280;4748;50.802;7.132;2022-11-11T16:33:18;102497.72;;;11.98;100.00
9419;BME280;4748;50.802;7.132;2022-11-11T16:35:44;102501.97;;;11.92;100.00
9419;BME280;4748;50.802;7.132;2022-11-11T16:38:09;102503.56;;;11.87;100.00
9419;BME280;4748;50.802;7.132;2022-11-11T16:40:43;102495.41;;;11.80;100.00
9419;BME280;4748;50.802;7.132;2022-11-11T16:43:23;102503.50;;;11.72;100.00
9419;BME280;4748;50.802;7.132;2022-11-11T16:46:06;102492.19;;;11.63;100.00
9419;BME280;4748;50.802;7.132;2022-11-11T16:51:13;102499.97;;;11.58;100.00
9419;BME280;4748;50.802;7.132;2022-11-11T16:53:43;102496.16;;;11.52;100.00
9419;BME280;4748;50.802;7.132;2022-11-11T16:56:28;102495.34;;;11.44;100.00
9419;BME280;4748;50.802;7.132;2022-11-11T16:59:23;102497.56;;;11.40;100.00
9419;BME280;4748;50.802;7.132;2022-11-11T17:01:49;102495.13;;;11.31;100.00
9419;BME280;4748;50.802;7.132;2022-11-11T17:04:15;102487.44;;;11.28;100.00
9419;BME280;4748;50.802;7.132;2022-11-11T17:06:46;102486.13;;;11.24;100.00
9419;BME280;4748;50.802;7.132;2022-11-11T17:09:27;102490.34;;;11.18;100.00
9419;BME280;4748;50.802;7.132;2022-11-11T17:11:53;102487.56;;;11.12;100.00
9419;BME280;4748;50.802;7.132;2022-11-11T17:14:18;102487.94;;;11.09;100.00
9419;BME280;4748;50.802;7.132;2022-11-11T17:16:44;102487.59;;;11.04;100.00
9419;BME280;4748;50.802;7.132;2022-11-11T17:19:09;102499.03;;;10.98;100.00
9419;BME280;4748;50.802;7.132;2022-11-11T17:21:35;102488.88;;;10.94;100.00
9419;BME280;4748;50.802;7.132;2022-11-11T17:24:00;102495.41;;;10.91;100.00
9419;BME280;4748;50.802;7.132;2022-11-11T17:26:25;102493.06;;;10.88;100.00
9419;BME280;4748;50.802;7.132;2022-11-11T17:28:51;102501.47;;;10.85;100.00
9419;BME280;4748;50.802;7.132;2022-11-11T17:31:16;102499.97;;;10.83;100.00
9419;BME280;4748;50.802;7.132;2022-11-11T17:33:42;102510.88;;;10.81;100.00
9419;BME280;4748;50.802;7.132;2022-11-11T17:36:07;102513.25;;;10.76;100.00
9419;BME280;4748;50.802;7.132;2022-11-11T17:38:36;102513.94;;;10.70;100.00
9419;BME280;4748;50.802;7.132;2022-11-11T17:41:02;102510.28;;;10.64;100.00
9419;BME280;4748;50.802;7.132;2022-11-11T17:43:27;102501.59;;;10.62;100.00
9419;BME280;4748;50.802;7.132;2022-11-11T17:45:52;102508.97;;;10.60;100.00
9419;BME280;4748;50.802;7.132;2022-11-11T17:48:18;102499.97;;;10.53;100.00
9419;BME280;4748;50.802;7.132;2022-11-11T17:50:43;102504.00;;;10.49;100.00
9419;BME280;4748;50.802;7.132;2022-11-11T17:53:08;102495.63;;;10.44;100.00
9419;BME280;4748;50.802;7.132;2022-11-11T17:55:34;102501.69;;;10.38;100.00
9419;BME280;4748;50.802;7.132;2022-11-11T17:58:00;102506.91;;;10.31;100.00
9419;BME280;4748;50.802;7.132;2022-11-11T18:00:26;102502.09;;;10.27;100.00
9419;BME280;4748;50.802;7.132;2022-11-11T18:02:51;102500.47;;;10.10;100.00
9419;BME280;4748;50.802;7.132;2022-11-11T18:05:17;102509.31;;;10.11;100.00
9419;BME280;4748;50.802;7.132;2022-11-11T18:07:43;102501.16;;;10.04;100.00
9419;BME280;4748;50.802;7.132;2022-11-11T18:10:09;102500.13;;;10.05;100.00
9419;BME280;4748;50.802;7.132;2022-11-11T18:12:35;102506.31;;;10.06;100.00
9419;BME280;4748;50.802;7.132;2022-11-11T18:15:00;102514.34;;;10.06;100.00
9419;BME280;4748;50.802;7.132;2022-11-11T18:17:26;102515.00;;;10.08;100.00
9419;BME280;4748;50.802;7.132;2022-11-11T18:19:51;102517.84;;;10.06;100.00
9419;BME280;4748;50.802;7.132;2022-11-11T18:22:16;102513.84;;;10.02;100.00
9419;BME280;4748;50.802;7.132;2022-11-11T18:24:42;102516.84;;;9.99;100.00
9419;BME280;4748;50.802;7.132;2022-11-11T18:27:07;102516.22;;;9.97;100.00
9419;BME280;4748;50.802;7.132;2022-11-11T18:29:33;102525.41;;;9.95;100.00
9419;BME280;4748;50.802;7.132;2022-11-11T18:31:58;102528.72;;;9.89;100.00
9419;BME280;4748;50.802;7.132;2022-11-11T18:34:24;102524.53;;;9.86;100.00
9419;BME280;4748;50.802;7.132;2022-11-11T18:36:51;102527.03;;;9.80;100.00
9419;BME280;4748;50.802;7.132;2022-11-11T18:39:16;102523.53;;;9.71;100.00
9419;BME280;4748;50.802;7.132;2022-11-11T18:41:41;102531.56;;;9.71;100.00
9419;BME280;4748;50.802;7.132;2022-11-11T18:44:07;102535.59;;;9.67;100.00
9419;BME280;4748;50.802;7.132;2022-11-11T18:46:33;102533.56;;;9.62;100.00
9419;BME280;4748;50.802;7.132;2022-11-11T18:49:01;102528.38;;;9.60;100.00
9419;BME280;4748;50.802;7.132;2022-11-11T18:51:28;102531.91;;;9.61;100.00
9419;BME280;4748;50.802;7.132;2022-11-11T18:53:55;102532.25;;;9.58;100.00
9419;BME280;4748;50.802;7.132;2022-11-11T18:56:23;102531.59;;;9.48;100.00
9419;BME280;4748;50.802;7.132;2022-11-11T18:58:53;102537.09;;;9.54;100.00
9419;BME280;4748;50.802;7.132;2022-11-11T19:01:22;102536.25;;;9.54;100.00
9419;BME280;4748;50.802;7.132;2022-11-11T19:03:59;102533.75;;;9.52;100.00
9419;BME280;4748;50.802;7.132;2022-11-11T19:06:28;102530.72;;;9.47;100.00
9419;BME280;4748;50.802;7.132;2022-11-11T19:08:55;102535.59;;;9.44;100.00
9419;BME280;4748;50.802;7.132;2022-11-11T19:11:21;102546.63;;;9.41;100.00
9419;BME280;4748;50.802;7.132;2022-11-11T19:13:46;102540.59;;;9.39;100.00
9419;BME280;4748;50.802;7.132;2022-11-11T19:16:14;102551.94;;;9.33;100.00
9419;BME280;4748;50.802;7.132;2022-11-11T19:18:40;102551.28;;;9.31;100.00
9419;BME280;4748;50.802;7.132;2022-11-11T19:23:36;102553.59;;;9.26;100.00
9419;BME280;4748;50.802;7.132;2022-11-11T19:26:02;102553.94;;;9.23;100.00
9419;BME280;4748;50.802;7.132;2022-11-11T19:28:27;102553.25;;;9.13;100.00
9419;BME280;4748;50.802;7.132;2022-11-11T19:30:52;102547.72;;;9.07;100.00
9419;BME280;4748;50.802;7.132;2022-11-11T19:33:18;102549.91;;;9.11;100.00
9419;BME280;4748;50.802;7.132;2022-11-11T19:35:54;102550.41;;;9.07;100.00
9419;BME280;4748;50.802;7.132;2022-11-11T19:38:19;102550.88;;;9.02;100.00
9419;BME280;4748;50.802;7.132;2022-11-11T19:40:44;102545.22;;;9.05;100.00
9419;BME280;4748;50.802;7.132;2022-11-11T19:43:11;102552.06;;;9.00;100.00
9419;BME280;4748;50.802;7.132;2022-11-11T19:45:36;102547.22;;;9.03;100.00
9419;BME280;4748;50.802;7.132;2022-11-11T19:48:01;102550.22;;;9.00;100.00
9419;BME280;4748;50.802;7.132;2022-11-11T19:50:27;102556.53;;;8.99;100.00
9419;BME280;4748;50.802;7.132;2022-11-11T19:52:52;102555.88;;;8.97;100.00
9419;BME280;4748;50.802;7.132;2022-11-11T19:55:18;102550.16;;;8.92;100.00
9419;BME280;4748;50.802;7.132;2022-11-11T19:57:43;102558.06;;;8.94;100.00
9419;BME280;4748;50.802;7.132;2022-11-11T20:00:08;102555.22;;;8.95;100.00
9419;BME280;4748;50.802;7.132;2022-11-11T20:02:34;102557.72;;;8.97;100.00
9419;BME280;4748;50.802;7.132;2022-11-11T20:04:59;102555.22;;;8.95;100.00
9419;BME280;4748;50.802;7.132;2022-11-11T20:07:25;102557.88;;;8.95;100.00